SWR5YW LIRF-LSZH
Flight info
| Callsign | SWR5YW |
|---|---|
| Flight time | 1h 22m |
| Altitude | 36000 |
| Route | SOVAN DCT AMTEL DCT PEPAG DCT CANNE Z651 DETRI/N0439F300 Z651 KELIP |
| Aircraft | A320/M-SDE2E3FGHIJ1RWXY/LB1 |
Departure
| Time | 2026-02-17 08:49 |
|---|---|
| Airport | Rome–Fiumicino Leonardo da Vinci International Airport (LIRF) |
Arrival
| Time | 2026-02-17 10:12 |
|---|---|
| Airport | Zürich Airport (LSZH) |
| Time | Latitude | Longitude | Altitude | Speed | Heading |
|---|---|---|---|---|---|
| 2026-02-17 08:21 | 41.79792 | 12.25528 | 16 ft | 0 kts | 115° |
| 2026-02-17 08:40 | 41.79796 | 12.25515 | 14 ft | 3 kts | 115° |
| 2026-02-17 08:40 | 41.79805 | 12.25492 | 14 ft | 3 kts | 111° |
| 2026-02-17 08:40 | 41.79808 | 12.25469 | 14 ft | 3 kts | 70° |
| 2026-02-17 08:41 | 41.79799 | 12.25450 | 14 ft | 2 kts | 28° |
| 2026-02-17 08:41 | 41.79796 | 12.25448 | 16 ft | 1 kts | 25° |
| 2026-02-17 08:41 | 41.79811 | 12.25457 | 14 ft | 3 kts | 25° |
| 2026-02-17 08:41 | 41.79830 | 12.25469 | 14 ft | 3 kts | 25° |
| 2026-02-17 08:42 | 41.79848 | 12.25480 | 16 ft | 3 kts | 25° |
| 2026-02-17 08:42 | 41.79866 | 12.25492 | 15 ft | 3 kts | 25° |
| 2026-02-17 08:42 | 41.79885 | 12.25503 | 14 ft | 3 kts | 25° |
| 2026-02-17 08:43 | 41.79892 | 12.25508 | 15 ft | 0 kts | 25° |
| 2026-02-17 08:44 | 41.79925 | 12.25531 | 14 ft | 9 kts | 36° |
| 2026-02-17 08:45 | 41.79922 | 12.25622 | 15 ft | 16 kts | 113° |
| 2026-02-17 08:45 | 41.79875 | 12.25758 | 14 ft | 15 kts | 115° |
| 2026-02-17 08:45 | 41.79920 | 12.25852 | 14 ft | 14 kts | 25° |
| 2026-02-17 08:45 | 41.80013 | 12.25909 | 14 ft | 15 kts | 23° |
| 2026-02-17 08:46 | 41.80115 | 12.25969 | 14 ft | 17 kts | 24° |
| 2026-02-17 08:46 | 41.80225 | 12.26036 | 15 ft | 18 kts | 25° |
| 2026-02-17 08:46 | 41.80338 | 12.26115 | 14 ft | 18 kts | 45° |
| 2026-02-17 08:47 | 41.80443 | 12.26448 | 15 ft | 20 kts | 70° |
| 2026-02-17 08:47 | 41.80494 | 12.26633 | 15 ft | 22 kts | 69° |
| 2026-02-17 08:47 | 41.80549 | 12.26832 | 15 ft | 24 kts | 70° |
| 2026-02-17 08:47 | 41.80598 | 12.27007 | 14 ft | 16 kts | 57° |
| 2026-02-17 08:48 | 41.80707 | 12.27054 | 13 ft | 17 kts | 6° |
| 2026-02-17 08:48 | 41.80826 | 12.27035 | 13 ft | 18 kts | 341° |
| 2026-02-17 08:48 | 41.80941 | 12.26970 | 13 ft | 16 kts | 321° |
| 2026-02-17 08:48 | 41.80926 | 12.26812 | 14 ft | 25 kts | 249° |
| 2026-02-17 08:49 | 41.80798 | 12.26339 | 19 ft | 87 kts | 249° |
| 2026-02-17 08:49 | 41.80515 | 12.25317 | 19 ft | 144 kts | 250° |
| 2026-02-17 08:49 | 41.80125 | 12.23892 | 241 ft | 166 kts | 253° |
| 2026-02-17 08:49 | 41.79724 | 12.22455 | 935 ft | 164 kts | 252° |
| 2026-02-17 08:50 | 41.79223 | 12.21068 | 1586 ft | 171 kts | 234° |
| 2026-02-17 08:50 | 41.78595 | 12.20393 | 1983 ft | 178 kts | 218° |
| 2026-02-17 08:50 | 41.77199 | 12.19208 | 2693 ft | 180 kts | 219° |
| 2026-02-17 08:51 | 41.75402 | 12.17655 | 3350 ft | 196 kts | 222° |
| 2026-02-17 08:51 | 41.74487 | 12.16270 | 3567 ft | 204 kts | 255° |
| 2026-02-17 08:51 | 41.74315 | 12.14391 | 3759 ft | 209 kts | 291° |
| 2026-02-17 08:51 | 41.75040 | 12.12689 | 4065 ft | 219 kts | 323° |
| 2026-02-17 08:52 | 41.76465 | 12.11868 | 4533 ft | 232 kts | 352° |
| 2026-02-17 08:52 | 41.78093 | 12.11561 | 5303 ft | 238 kts | 352° |
| 2026-02-17 08:52 | 41.79750 | 12.11256 | 6148 ft | 242 kts | 352° |
| 2026-02-17 08:52 | 41.81415 | 12.10948 | 6938 ft | 246 kts | 352° |
| 2026-02-17 08:53 | 41.83124 | 12.10630 | 7746 ft | 250 kts | 351° |
| 2026-02-17 08:53 | 41.84857 | 12.10305 | 8564 ft | 253 kts | 351° |
| 2026-02-17 08:53 | 41.86619 | 12.09972 | 9399 ft | 256 kts | 351° |
| 2026-02-17 08:53 | 41.88405 | 12.09631 | 10080 ft | 264 kts | 351° |
| 2026-02-17 08:54 | 41.90289 | 12.09269 | 10306 ft | 287 kts | 351° |
| 2026-02-17 08:54 | 41.92334 | 12.08878 | 10669 ft | 303 kts | 351° |
| 2026-02-17 08:54 | 41.94450 | 12.08476 | 11348 ft | 308 kts | 351° |
| 2026-02-17 08:55 | 41.98740 | 12.07663 | 12858 ft | 314 kts | 350° |
| 2026-02-17 08:55 | 42.00916 | 12.07249 | 13548 ft | 317 kts | 350° |
| 2026-02-17 08:55 | 42.03092 | 12.06833 | 14178 ft | 320 kts | 350° |
| 2026-02-17 08:55 | 42.05306 | 12.06409 | 14833 ft | 322 kts | 349° |
| 2026-02-17 08:56 | 42.07538 | 12.05984 | 15518 ft | 324 kts | 349° |
| 2026-02-17 08:56 | 42.09779 | 12.05558 | 16199 ft | 325 kts | 349° |
| 2026-02-17 08:56 | 42.12027 | 12.05129 | 16875 ft | 327 kts | 349° |
| 2026-02-17 08:56 | 42.14291 | 12.04696 | 17554 ft | 329 kts | 349° |
| 2026-02-17 08:57 | 42.16560 | 12.04258 | 18182 ft | 330 kts | 349° |
| 2026-02-17 08:57 | 42.18815 | 12.03816 | 18812 ft | 330 kts | 348° |
| 2026-02-17 08:57 | 42.21091 | 12.03336 | 19457 ft | 330 kts | 348° |
| 2026-02-17 08:57 | 42.23355 | 12.02827 | 20103 ft | 330 kts | 347° |
| 2026-02-17 08:58 | 42.25627 | 12.02302 | 20737 ft | 330 kts | 347° |
| 2026-02-17 08:58 | 42.27864 | 12.01783 | 21364 ft | 330 kts | 346° |
| 2026-02-17 08:58 | 42.30134 | 12.01260 | 21989 ft | 330 kts | 346° |
| 2026-02-17 08:59 | 42.34674 | 12.00230 | 23193 ft | 331 kts | 346° |
| 2026-02-17 08:59 | 42.36940 | 11.99720 | 23681 ft | 331 kts | 346° |
| 2026-02-17 08:59 | 42.39214 | 11.99211 | 24156 ft | 331 kts | 346° |
| 2026-02-17 08:59 | 42.41499 | 11.98699 | 24556 ft | 333 kts | 346° |
| 2026-02-17 09:00 | 42.43767 | 11.98186 | 24939 ft | 335 kts | 346° |
| 2026-02-17 09:00 | 42.46071 | 11.97663 | 25365 ft | 335 kts | 345° |
| 2026-02-17 09:00 | 42.48382 | 11.97141 | 25776 ft | 335 kts | 345° |
| 2026-02-17 09:00 | 42.50690 | 11.96617 | 26189 ft | 336 kts | 345° |
| 2026-02-17 09:01 | 42.52967 | 11.96100 | 26578 ft | 337 kts | 345° |
| 2026-02-17 09:01 | 42.55279 | 11.95577 | 26984 ft | 337 kts | 345° |
| 2026-02-17 09:01 | 42.57599 | 11.95056 | 27374 ft | 338 kts | 345° |
| 2026-02-17 09:01 | 42.59918 | 11.94535 | 27755 ft | 338 kts | 345° |
| 2026-02-17 09:02 | 42.62243 | 11.94008 | 28104 ft | 340 kts | 345° |
| 2026-02-17 09:02 | 42.64586 | 11.93470 | 28390 ft | 343 kts | 345° |
| 2026-02-17 09:02 | 42.66942 | 11.92928 | 28712 ft | 344 kts | 345° |
| 2026-02-17 09:03 | 42.71677 | 11.91849 | 29368 ft | 346 kts | 345° |
| 2026-02-17 09:03 | 42.74062 | 11.91308 | 29681 ft | 346 kts | 345° |
| 2026-02-17 09:03 | 42.76438 | 11.90769 | 29960 ft | 347 kts | 345° |
| 2026-02-17 09:03 | 42.78831 | 11.90223 | 30169 ft | 349 kts | 345° |
| 2026-02-17 09:04 | 42.81229 | 11.89675 | 30391 ft | 350 kts | 344° |
| 2026-02-17 09:04 | 42.83558 | 11.88892 | 30562 ft | 348 kts | 336° |
| 2026-02-17 09:04 | 42.85758 | 11.87519 | 30744 ft | 347 kts | 330° |
| 2026-02-17 09:04 | 42.87885 | 11.85953 | 31002 ft | 347 kts | 330° |
| 2026-02-17 09:05 | 42.90016 | 11.84389 | 31256 ft | 347 kts | 330° |
| 2026-02-17 09:05 | 42.92147 | 11.82827 | 31505 ft | 347 kts | 330° |
| 2026-02-17 09:05 | 42.94285 | 11.81266 | 31754 ft | 347 kts | 330° |
| 2026-02-17 09:05 | 42.96384 | 11.79733 | 32016 ft | 347 kts | 330° |
| 2026-02-17 09:06 | 42.98509 | 11.78178 | 32271 ft | 346 kts | 330° |
| 2026-02-17 09:06 | 43.00639 | 11.76621 | 32529 ft | 346 kts | 330° |
| 2026-02-17 09:06 | 43.02769 | 11.75061 | 32818 ft | 346 kts | 330° |
| 2026-02-17 09:07 | 43.07061 | 11.71913 | 33109 ft | 352 kts | 330° |
| 2026-02-17 09:07 | 43.09199 | 11.70335 | 33342 ft | 352 kts | 330° |
| 2026-02-17 09:07 | 43.11358 | 11.68741 | 33582 ft | 353 kts | 330° |
| 2026-02-17 09:07 | 43.13522 | 11.67145 | 33758 ft | 352 kts | 330° |
| 2026-02-17 09:08 | 43.15662 | 11.65568 | 34161 ft | 346 kts | 329° |
| 2026-02-17 09:08 | 43.17781 | 11.64006 | 34492 ft | 343 kts | 329° |
| 2026-02-17 09:08 | 43.19857 | 11.62473 | 34722 ft | 343 kts | 329° |
| 2026-02-17 09:08 | 43.21959 | 11.60914 | 34925 ft | 343 kts | 329° |
| 2026-02-17 09:09 | 43.24021 | 11.59267 | 35124 ft | 342 kts | 327° |
| 2026-02-17 09:09 | 43.26048 | 11.57528 | 35304 ft | 344 kts | 326° |
| 2026-02-17 09:09 | 43.28039 | 11.55764 | 35440 ft | 345 kts | 326° |
| 2026-02-17 09:09 | 43.30059 | 11.53961 | 35593 ft | 346 kts | 326° |
| 2026-02-17 09:10 | 43.32077 | 11.52164 | 35639 ft | 346 kts | 326° |
| 2026-02-17 09:10 | 43.36135 | 11.48597 | 35684 ft | 345 kts | 326° |
| 2026-02-17 09:11 | 43.42200 | 11.43307 | 35751 ft | 345 kts | 326° |
| 2026-02-17 09:11 | 43.46258 | 11.39767 | 35793 ft | 345 kts | 326° |
| 2026-02-17 09:12 | 43.50311 | 11.36208 | 35762 ft | 348 kts | 326° |
| 2026-02-17 09:12 | 43.54412 | 11.32606 | 35755 ft | 349 kts | 326° |
| 2026-02-17 09:13 | 43.58489 | 11.29024 | 35724 ft | 347 kts | 326° |
| 2026-02-17 09:13 | 43.62539 | 11.25461 | 35761 ft | 343 kts | 326° |
| 2026-02-17 09:14 | 43.66562 | 11.21917 | 35791 ft | 342 kts | 326° |
| 2026-02-17 09:15 | 43.72562 | 11.16611 | 35792 ft | 342 kts | 326° |
| 2026-02-17 09:15 | 43.76577 | 11.13054 | 35790 ft | 342 kts | 326° |
| 2026-02-17 09:16 | 43.80576 | 11.09513 | 35783 ft | 342 kts | 326° |
| 2026-02-17 09:16 | 43.84593 | 11.05946 | 35781 ft | 342 kts | 326° |
| 2026-02-17 09:17 | 43.88606 | 11.02373 | 35779 ft | 342 kts | 326° |
| 2026-02-17 09:17 | 43.92597 | 10.98808 | 35773 ft | 343 kts | 326° |
| 2026-02-17 09:18 | 43.96626 | 10.95208 | 35751 ft | 345 kts | 326° |
| 2026-02-17 09:18 | 44.00669 | 10.91602 | 35743 ft | 346 kts | 326° |
| 2026-02-17 09:19 | 44.06735 | 10.86168 | 35727 ft | 347 kts | 326° |
| 2026-02-17 09:19 | 44.10796 | 10.82519 | 35740 ft | 347 kts | 326° |
| 2026-02-17 09:20 | 44.14848 | 10.78879 | 35726 ft | 349 kts | 326° |
| 2026-02-17 09:20 | 44.18936 | 10.75198 | 35724 ft | 350 kts | 326° |
| 2026-02-17 09:21 | 44.23031 | 10.71500 | 35730 ft | 350 kts | 326° |
| 2026-02-17 09:21 | 44.27098 | 10.67823 | 35734 ft | 350 kts | 326° |
| 2026-02-17 09:22 | 44.31196 | 10.64117 | 35736 ft | 350 kts | 326° |
| 2026-02-17 09:23 | 44.37318 | 10.58573 | 35741 ft | 350 kts | 326° |
| 2026-02-17 09:23 | 44.41400 | 10.54861 | 35751 ft | 348 kts | 326° |
| 2026-02-17 09:24 | 44.45420 | 10.51196 | 35779 ft | 345 kts | 326° |
| 2026-02-17 09:24 | 44.49442 | 10.47519 | 35773 ft | 343 kts | 326° |
| 2026-02-17 09:25 | 44.53445 | 10.43866 | 35774 ft | 342 kts | 326° |
| 2026-02-17 09:25 | 44.57427 | 10.40220 | 35767 ft | 342 kts | 326° |
| 2026-02-17 09:26 | 44.61386 | 10.36586 | 35756 ft | 342 kts | 326° |
| 2026-02-17 09:26 | 44.65374 | 10.32927 | 35757 ft | 342 kts | 326° |
| 2026-02-17 09:27 | 44.71363 | 10.27412 | 35777 ft | 342 kts | 326° |
| 2026-02-17 09:27 | 44.75321 | 10.23766 | 35795 ft | 341 kts | 326° |
| 2026-02-17 09:28 | 44.79287 | 10.20102 | 35793 ft | 341 kts | 326° |
| 2026-02-17 09:28 | 44.83232 | 10.16446 | 35789 ft | 340 kts | 326° |
| 2026-02-17 09:29 | 44.87203 | 10.12765 | 35782 ft | 340 kts | 326° |
| 2026-02-17 09:29 | 44.91154 | 10.09110 | 35781 ft | 340 kts | 326° |
| 2026-02-17 09:30 | 44.97084 | 10.03585 | 35803 ft | 341 kts | 326° |
| 2026-02-17 09:31 | 45.03032 | 9.98040 | 35721 ft | 341 kts | 326° |
| 2026-02-17 09:31 | 45.07000 | 9.94336 | 35769 ft | 341 kts | 326° |
| 2026-02-17 09:32 | 45.10952 | 9.90643 | 35774 ft | 340 kts | 326° |
| 2026-02-17 09:32 | 45.14892 | 9.86947 | 35786 ft | 339 kts | 326° |
| 2026-02-17 09:33 | 45.18813 | 9.83259 | 35780 ft | 341 kts | 326° |
| 2026-02-17 09:33 | 45.22106 | 9.80156 | 35764 ft | 343 kts | 326° |
| 2026-02-17 09:34 | 45.26750 | 9.75783 | 35756 ft | 344 kts | 326° |
| 2026-02-17 09:35 | 45.32074 | 9.70757 | 35710 ft | 345 kts | 326° |
| 2026-02-17 09:35 | 45.36067 | 9.66973 | 35690 ft | 343 kts | 326° |
| 2026-02-17 09:36 | 45.40022 | 9.63233 | 35687 ft | 342 kts | 326° |
| 2026-02-17 09:36 | 45.43990 | 9.59463 | 35652 ft | 342 kts | 326° |
| 2026-02-17 09:37 | 45.47957 | 9.55687 | 35614 ft | 342 kts | 326° |
| 2026-02-17 09:37 | 45.51902 | 9.51932 | 35610 ft | 342 kts | 326° |
| 2026-02-17 09:38 | 45.55874 | 9.48148 | 35610 ft | 342 kts | 326° |
| 2026-02-17 09:38 | 45.59838 | 9.44355 | 35632 ft | 343 kts | 326° |
| 2026-02-17 09:39 | 45.65782 | 9.38661 | 35633 ft | 343 kts | 326° |
| 2026-02-17 09:39 | 45.67766 | 9.36760 | 35821 ft | 342 kts | 326° |
| 2026-02-17 09:39 | 45.69745 | 9.34858 | 35824 ft | 341 kts | 326° |
| 2026-02-17 09:40 | 45.73672 | 9.31076 | 35827 ft | 340 kts | 326° |
| 2026-02-17 09:40 | 45.77574 | 9.27318 | 35834 ft | 339 kts | 326° |
| 2026-02-17 09:41 | 45.81497 | 9.23541 | 35857 ft | 339 kts | 326° |
| 2026-02-17 09:41 | 45.85426 | 9.19737 | 35836 ft | 341 kts | 326° |
| 2026-02-17 09:42 | 45.89350 | 9.15924 | 35845 ft | 342 kts | 326° |
| 2026-02-17 09:43 | 45.95268 | 9.10176 | 35841 ft | 340 kts | 326° |
| 2026-02-17 09:43 | 45.99174 | 9.06368 | 35882 ft | 337 kts | 325° |
| 2026-02-17 09:44 | 46.02956 | 9.02483 | 35880 ft | 334 kts | 324° |
| 2026-02-17 09:44 | 46.06690 | 8.98549 | 35861 ft | 333 kts | 324° |
| 2026-02-17 09:45 | 46.10448 | 8.94610 | 35882 ft | 333 kts | 324° |
| 2026-02-17 09:45 | 46.14210 | 8.90676 | 35877 ft | 334 kts | 324° |
| 2026-02-17 09:46 | 46.18428 | 8.87908 | 35873 ft | 340 kts | 343° |
| 2026-02-17 09:46 | 46.23180 | 8.87128 | 35924 ft | 344 kts | 347° |
| 2026-02-17 09:47 | 46.30325 | 8.86076 | 35892 ft | 345 kts | 347° |
| 2026-02-17 09:47 | 46.35095 | 8.85357 | 35896 ft | 344 kts | 347° |
| 2026-02-17 09:48 | 46.39864 | 8.84639 | 35895 ft | 343 kts | 346° |
| 2026-02-17 09:48 | 46.44566 | 8.83931 | 35929 ft | 340 kts | 346° |
| 2026-02-17 09:49 | 46.49257 | 8.83222 | 35936 ft | 338 kts | 346° |
| 2026-02-17 09:49 | 46.53929 | 8.82513 | 35934 ft | 336 kts | 346° |
| 2026-02-17 09:50 | 46.58553 | 8.81809 | 35924 ft | 336 kts | 346° |
| 2026-02-17 09:50 | 46.60910 | 8.81446 | 35688 ft | 335 kts | 346° |
| 2026-02-17 09:51 | 46.65507 | 8.80751 | 35256 ft | 333 kts | 347° |
| 2026-02-17 09:51 | 46.67813 | 8.80403 | 34929 ft | 332 kts | 346° |
| 2026-02-17 09:51 | 46.70128 | 8.80052 | 34104 ft | 336 kts | 347° |
| 2026-02-17 09:51 | 46.72449 | 8.79704 | 33449 ft | 331 kts | 346° |
| 2026-02-17 09:52 | 46.74720 | 8.79369 | 32883 ft | 324 kts | 346° |
| 2026-02-17 09:52 | 46.76920 | 8.79042 | 32338 ft | 316 kts | 346° |
| 2026-02-17 09:52 | 46.79098 | 8.78713 | 31801 ft | 312 kts | 346° |
| 2026-02-17 09:52 | 46.81236 | 8.78386 | 31291 ft | 305 kts | 345° |
| 2026-02-17 09:53 | 46.83340 | 8.78064 | 30785 ft | 302 kts | 345° |
| 2026-02-17 09:53 | 46.85427 | 8.77742 | 30301 ft | 300 kts | 345° |
| 2026-02-17 09:53 | 46.87505 | 8.77420 | 29753 ft | 298 kts | 345° |
| 2026-02-17 09:53 | 46.89550 | 8.77109 | 29253 ft | 291 kts | 345° |
| 2026-02-17 09:54 | 46.91526 | 8.76810 | 28803 ft | 287 kts | 345° |
| 2026-02-17 09:54 | 46.93505 | 8.76505 | 28345 ft | 284 kts | 345° |
| 2026-02-17 09:54 | 46.95453 | 8.76207 | 27919 ft | 277 kts | 346° |
| 2026-02-17 09:55 | 46.99271 | 8.75614 | 27086 ft | 273 kts | 345° |
| 2026-02-17 09:55 | 47.01120 | 8.75321 | 26691 ft | 269 kts | 345° |
| 2026-02-17 09:55 | 47.02969 | 8.75023 | 26298 ft | 266 kts | 345° |
| 2026-02-17 09:55 | 47.04805 | 8.74728 | 25920 ft | 264 kts | 346° |
| 2026-02-17 09:56 | 47.06638 | 8.74434 | 25536 ft | 267 kts | 346° |
| 2026-02-17 09:56 | 47.08495 | 8.74054 | 25156 ft | 269 kts | 343° |
| 2026-02-17 09:56 | 47.10326 | 8.73584 | 24776 ft | 270 kts | 343° |
| 2026-02-17 09:56 | 47.12183 | 8.73075 | 24395 ft | 271 kts | 343° |
| 2026-02-17 09:57 | 47.14041 | 8.72559 | 24011 ft | 272 kts | 343° |
| 2026-02-17 09:57 | 47.15904 | 8.72046 | 23616 ft | 273 kts | 343° |
| 2026-02-17 09:57 | 47.17779 | 8.71537 | 23181 ft | 274 kts | 344° |
| 2026-02-17 09:57 | 47.19659 | 8.71029 | 22764 ft | 274 kts | 344° |
| 2026-02-17 09:58 | 47.21515 | 8.70533 | 22373 ft | 274 kts | 344° |
| 2026-02-17 09:58 | 47.23395 | 8.70036 | 21944 ft | 275 kts | 344° |
| 2026-02-17 09:58 | 47.25282 | 8.69539 | 21568 ft | 276 kts | 344° |
| 2026-02-17 09:59 | 47.28866 | 8.67791 | 20779 ft | 270 kts | 332° |
| 2026-02-17 09:59 | 47.30574 | 8.66613 | 20383 ft | 271 kts | 332° |
| 2026-02-17 09:59 | 47.32284 | 8.65437 | 19980 ft | 271 kts | 332° |
| 2026-02-17 09:59 | 47.33990 | 8.64268 | 19595 ft | 271 kts | 332° |
| 2026-02-17 10:00 | 47.35707 | 8.63095 | 19208 ft | 271 kts | 332° |
| 2026-02-17 10:00 | 47.37398 | 8.61905 | 18826 ft | 270 kts | 328° |
| 2026-02-17 10:00 | 47.39008 | 8.60494 | 18427 ft | 269 kts | 327° |
| 2026-02-17 10:00 | 47.40621 | 8.59069 | 18001 ft | 269 kts | 327° |
| 2026-02-17 10:01 | 47.42229 | 8.57646 | 17602 ft | 269 kts | 327° |
| 2026-02-17 10:01 | 47.43765 | 8.56081 | 17190 ft | 268 kts | 317° |
| 2026-02-17 10:01 | 47.45015 | 8.54012 | 16347 ft | 280 kts | 304° |
| 2026-02-17 10:01 | 47.45883 | 8.51402 | 15760 ft | 286 kts | 290° |
| 2026-02-17 10:02 | 47.46297 | 8.48506 | 15317 ft | 289 kts | 281° |
| 2026-02-17 10:02 | 47.46575 | 8.45561 | 14891 ft | 288 kts | 281° |
| 2026-02-17 10:02 | 47.46859 | 8.42629 | 14486 ft | 287 kts | 281° |
| 2026-02-17 10:03 | 47.47425 | 8.36827 | 13758 ft | 285 kts | 281° |
| 2026-02-17 10:03 | 47.47706 | 8.33942 | 13311 ft | 283 kts | 280° |
| 2026-02-17 10:03 | 47.48165 | 8.31174 | 13055 ft | 270 kts | 295° |
| 2026-02-17 10:03 | 47.49189 | 8.28936 | 12592 ft | 260 kts | 314° |
| 2026-02-17 10:04 | 47.50690 | 8.27448 | 11989 ft | 262 kts | 334° |
| 2026-02-17 10:04 | 47.52429 | 8.26611 | 11309 ft | 262 kts | 338° |
| 2026-02-17 10:04 | 47.54172 | 8.25815 | 10664 ft | 261 kts | 338° |
| 2026-02-17 10:04 | 47.55874 | 8.25029 | 10051 ft | 258 kts | 338° |
| 2026-02-17 10:05 | 47.57583 | 8.24239 | 9395 ft | 256 kts | 338° |
| 2026-02-17 10:05 | 47.59278 | 8.23455 | 8695 ft | 254 kts | 338° |
| 2026-02-17 10:05 | 47.60966 | 8.22673 | 8016 ft | 252 kts | 338° |
| 2026-02-17 10:05 | 47.62638 | 8.21898 | 7373 ft | 250 kts | 339° |
| 2026-02-17 10:06 | 47.64364 | 8.21723 | 6991 ft | 249 kts | 7° |
| 2026-02-17 10:06 | 47.65862 | 8.22852 | 6739 ft | 248 kts | 39° |
| 2026-02-17 10:06 | 47.66722 | 8.25065 | 6650 ft | 258 kts | 73° |
| 2026-02-17 10:07 | 47.65620 | 8.29814 | 6231 ft | 251 kts | 139° |
| 2026-02-17 10:07 | 47.64326 | 8.31549 | 5880 ft | 249 kts | 142° |
| 2026-02-17 10:07 | 47.63037 | 8.33261 | 5527 ft | 249 kts | 141° |
| 2026-02-17 10:07 | 47.61756 | 8.35016 | 5186 ft | 251 kts | 141° |
| 2026-02-17 10:08 | 47.60486 | 8.36768 | 4840 ft | 246 kts | 140° |
| 2026-02-17 10:08 | 47.59244 | 8.38479 | 4518 ft | 243 kts | 141° |
| 2026-02-17 10:08 | 47.58040 | 8.40134 | 4169 ft | 234 kts | 141° |
| 2026-02-17 10:08 | 47.56871 | 8.41740 | 3859 ft | 224 kts | 142° |
| 2026-02-17 10:09 | 47.55762 | 8.43265 | 3577 ft | 211 kts | 142° |
| 2026-02-17 10:09 | 47.54715 | 8.44702 | 3280 ft | 199 kts | 142° |
| 2026-02-17 10:09 | 47.53729 | 8.46054 | 3016 ft | 187 kts | 142° |
| 2026-02-17 10:09 | 47.52799 | 8.47329 | 2765 ft | 177 kts | 143° |
| 2026-02-17 10:10 | 47.51933 | 8.48515 | 2527 ft | 163 kts | 143° |
| 2026-02-17 10:10 | 47.51124 | 8.49623 | 2278 ft | 153 kts | 142° |
| 2026-02-17 10:10 | 47.50362 | 8.50663 | 2056 ft | 146 kts | 142° |
| 2026-02-17 10:11 | 47.48917 | 8.52662 | 1645 ft | 140 kts | 140° |
| 2026-02-17 10:11 | 47.48203 | 8.53625 | 1459 ft | 138 kts | 140° |
| 2026-02-17 10:11 | 47.47538 | 8.54521 | 1398 ft | 116 kts | 137° |
| 2026-02-17 10:11 | 47.47079 | 8.55150 | 1388 ft | 66 kts | 137° |
| 2026-02-17 10:12 | 47.46839 | 8.55480 | 1392 ft | 31 kts | 135° |
| 2026-02-17 10:12 | 47.46674 | 8.55643 | 1398 ft | 27 kts | 158° |
| 2026-02-17 10:12 | 47.46506 | 8.55710 | 1405 ft | 23 kts | 167° |
| 2026-02-17 10:12 | 47.46365 | 8.55781 | 1402 ft | 20 kts | 140° |
| 2026-02-17 10:13 | 47.46272 | 8.55909 | 1402 ft | 17 kts | 137° |
| 2026-02-17 10:13 | 47.46194 | 8.56014 | 1410 ft | 14 kts | 138° |
| 2026-02-17 10:13 | 47.46128 | 8.56103 | 1408 ft | 12 kts | 137° |
| 2026-02-17 10:13 | 47.46054 | 8.56206 | 1410 ft | 15 kts | 136° |
| 2026-02-17 10:14 | 47.45982 | 8.56299 | 1411 ft | 13 kts | 150° |
| 2026-02-17 10:14 | 47.45899 | 8.56307 | 1414 ft | 12 kts | 186° |
| 2026-02-17 10:14 | 47.45825 | 8.56295 | 1415 ft | 10 kts | 186° |
| 2026-02-17 10:15 | 47.45692 | 8.56274 | 1413 ft | 11 kts | 185° |
| 2026-02-17 10:15 | 47.45609 | 8.56261 | 1412 ft | 12 kts | 186° |
| 2026-02-17 10:15 | 47.45551 | 8.56251 | 1413 ft | 13 kts | 187° |
| 2026-02-17 10:15 | 47.45479 | 8.56177 | 1407 ft | 15 kts | 265° |
| 2026-02-17 10:16 | 47.45488 | 8.56024 | 1407 ft | 15 kts | 277° |
| 2026-02-17 10:16 | 47.45500 | 8.55875 | 1407 ft | 14 kts | 275° |
| 2026-02-17 10:16 | 47.45508 | 8.55741 | 1411 ft | 8 kts | 276° |
| 2026-02-17 10:16 | 47.45483 | 8.55699 | 1412 ft | 5 kts | 192° |
| 2026-02-17 10:17 | 47.45448 | 8.55693 | 1410 ft | 5 kts | 186° |
| 2026-02-17 10:17 | 47.45435 | 8.55691 | 1407 ft | 0 kts | 185° |
| 2026-02-17 10:17 | 47.45434 | 8.55691 | 1407 ft | 0 kts | 185° |